createdAt,value
2019-04-21T00:01:24.394Z,58.00
2019-04-21T00:04:09.495Z,63.00
2019-04-21T00:07:01.209Z,60.80
2019-04-21T00:09:32.585Z,63.00
2019-04-21T00:12:02.434Z,65.00
2019-04-21T00:14:30.252Z,64.25
2019-04-21T00:17:03.101Z,66.50
2019-04-21T00:19:34.940Z,64.00
2019-04-21T00:22:19.482Z,65.75
2019-04-21T00:24:58.372Z,68.00
2019-04-21T00:27:36.887Z,64.50
2019-04-21T00:30:15.764Z,88.25
2019-04-21T00:32:39.300Z,76.50
2019-04-21T00:35:11.789Z,72.50
2019-04-21T00:38:00.862Z,68.50
2019-04-21T00:40:41.443Z,69.75
2019-04-21T00:43:08.958Z,63.50
2019-04-21T00:45:39.314Z,64.75
2019-04-21T00:48:25.763Z,65.20
2019-04-21T00:51:19.838Z,66.25
2019-04-21T00:53:43.852Z,67.50
2019-04-21T00:56:18.170Z,66.50
2019-04-21T00:58:48.714Z,62.50
2019-04-21T01:01:21.977Z,70.75
2019-04-21T01:03:57.800Z,66.75
2019-04-21T01:06:35.190Z,71.50
2019-04-21T01:09:07.950Z,70.00
2019-04-21T01:11:44.614Z,69.25
2019-04-21T01:14:31.089Z,69.80
2019-04-21T01:17:00.701Z,74.50
2019-04-21T01:19:26.992Z,75.75
2019-04-21T01:21:44.188Z,70.50
2019-04-21T01:24:24.533Z,75.20
2019-04-21T01:27:04.727Z,82.25
2019-04-21T01:29:58.453Z,77.00
2019-04-21T01:32:25.346Z,77.00
2019-04-21T01:35:02.373Z,83.40
2019-04-21T01:37:44.070Z,79.75
2019-04-21T01:40:19.104Z,75.25
2019-04-21T01:42:55.664Z,77.75
2019-04-21T01:45:31.894Z,75.50
2019-04-21T01:48:05.818Z,84.50
2019-04-21T01:50:43.889Z,75.25
2019-04-21T01:53:24.178Z,76.75
2019-04-21T01:55:54.527Z,79.80
2019-04-21T01:58:22.982Z,83.00
2019-04-21T02:01:01.050Z,79.80
2019-04-21T02:03:52.570Z,80.00
2019-04-21T02:06:22.799Z,80.00
2019-04-21T02:08:52.555Z,81.00
2019-04-21T02:11:31.314Z,79.50
2019-04-21T02:14:29.860Z,78.00
2019-04-21T02:16:40.709Z,79.50
2019-04-21T02:19:13.869Z,76.50
2019-04-21T02:21:43.281Z,75.00
2019-04-21T02:24:35.186Z,74.75
2019-04-21T02:27:07.094Z,81.50
2019-04-21T02:29:41.287Z,84.00
2019-04-21T02:35:08.400Z,78.75
2019-04-21T02:37:40.326Z,84.25
2019-04-21T02:42:46.340Z,77.25
2019-04-21T02:45:28.431Z,82.50
2019-04-21T02:50:33.578Z,81.00
2019-04-21T02:53:09.515Z,83.75
2019-04-21T02:55:44.665Z,74.25
2019-04-21T03:00:55.505Z,81.00
2019-04-21T03:08:49.679Z,93.25
2019-04-21T03:13:59.360Z,86.50
2019-04-21T03:16:25.750Z,87.75
2019-04-21T03:21:42.202Z,99.75
2019-04-21T03:24:29.711Z,101.00
2019-04-21T03:29:29.518Z,96.75
2019-04-21T03:35:25.906Z,103.50
2019-04-21T03:37:16.743Z,97.00
2019-04-21T03:42:30.770Z,100.20
2019-04-21T03:44:59.979Z,97.75
2019-04-21T03:47:32.487Z,96.00
2019-04-21T03:50:11.414Z,98.00
2019-04-21T03:52:50.432Z,59.50
2019-04-21T04:00:58.278Z,103.50
2019-04-21T04:03:33.024Z,94.25
2019-04-21T04:16:26.104Z,106.50
2019-04-21T04:29:18.306Z,110.00
2019-04-21T04:31:42.769Z,113.25
2019-04-21T04:34:27.547Z,97.00
2019-04-21T04:37:07.442Z,101.00
2019-04-21T04:42:31.532Z,93.00
2019-04-21T04:47:34.984Z,89.50
2019-04-21T04:49:53.379Z,92.75
2019-04-21T04:55:17.160Z,84.50
2019-04-21T04:57:55.342Z,97.00
2019-04-21T05:00:25.864Z,95.50
2019-04-21T05:05:30.097Z,94.00
2019-04-21T05:11:01.463Z,101.25
2019-04-21T05:13:21.379Z,97.00
2019-04-21T05:15:51.273Z,105.00
2019-04-21T05:18:35.060Z,96.75
2019-04-21T05:21:12.459Z,105.00
2019-04-21T05:23:31.360Z,116.75
2019-04-21T05:25:58.422Z,112.00
2019-04-21T05:28:32.688Z,125.75
2019-04-21T05:31:18.250Z,118.75
2019-04-21T05:33:57.729Z,122.00
2019-04-21T05:36:30.874Z,131.00
2019-04-21T05:39:01.167Z,129.50
2019-04-21T05:41:29.085Z,129.50
2019-04-21T05:44:13.314Z,126.75
2019-04-21T05:46:59.418Z,125.75
2019-04-21T05:49:23.154Z,121.50
2019-04-21T05:51:55.701Z,118.00
2019-04-21T05:57:10.180Z,134.60
2019-04-21T05:59:49.078Z,134.25
2019-04-21T06:02:24.201Z,134.75
2019-04-21T06:07:34.832Z,131.00
2019-04-21T06:10:08.604Z,121.20
2019-04-21T06:12:49.777Z,125.75
2019-04-21T06:15:21.349Z,114.20
2019-04-21T06:18:02.780Z,115.75
2019-04-21T06:20:38.514Z,124.00
2019-04-21T06:23:03.077Z,117.00
2019-04-21T06:25:54.564Z,118.00
2019-04-21T06:28:20.689Z,116.50
2019-04-21T06:31:05.946Z,119.50
2019-04-21T06:33:46.005Z,119.00
2019-04-21T06:38:58.295Z,111.80
2019-04-21T06:41:21.528Z,109.75
2019-04-21T06:43:56.309Z,108.60
2019-04-21T06:46:33.424Z,117.25
2019-04-21T06:51:38.971Z,105.75
2019-04-21T06:54:30.627Z,97.25
2019-04-21T06:56:47.956Z,100.00
2019-04-21T06:59:20.785Z,95.00
2019-04-21T07:02:13.462Z,91.50
2019-04-21T07:04:40.873Z,87.67
2019-04-21T07:07:05.204Z,84.00
2019-04-21T07:09:53.088Z,90.20
2019-04-21T07:12:19.003Z,77.25
2019-04-21T07:14:58.983Z,74.60
2019-04-21T07:17:46.723Z,74.00
2019-04-21T07:22:44.659Z,72.00
2019-04-21T07:25:26.400Z,71.25
2019-04-21T07:27:53.788Z,70.50
2019-04-21T07:30:31.175Z,69.50
2019-04-21T07:33:20.699Z,67.25
2019-04-21T07:35:37.502Z,75.25
2019-04-21T07:38:19.587Z,69.40
2019-04-21T07:40:48.514Z,64.00
2019-04-21T07:43:21.934Z,68.75
2019-04-21T07:45:58.506Z,65.00
2019-04-21T07:48:37.537Z,63.50
2019-04-21T07:51:25.483Z,61.00
2019-04-21T07:54:05.641Z,61.20
2019-04-21T07:56:17.806Z,62.00
2019-04-21T07:59:02.273Z,61.00
2019-04-21T08:01:37.349Z,60.33
2019-04-21T08:04:38.259Z,60.25
2019-04-21T08:06:53.686Z,60.50
2019-04-21T08:09:29.446Z,57.25
2019-04-21T08:12:02.663Z,59.75
2019-04-21T08:14:43.533Z,60.00
2019-04-21T08:17:09.795Z,58.00
2019-04-21T08:19:46.168Z,57.00
2019-04-21T08:22:25.679Z,54.75
2019-04-21T08:25:05.714Z,53.00
2019-04-21T08:27:46.449Z,55.75
2019-04-21T08:30:12.865Z,54.00
2019-04-21T08:37:55.232Z,49.60
2019-04-21T08:40:36.655Z,47.00
2019-04-21T08:43:08.854Z,47.25
2019-04-21T08:45:51.245Z,47.33
2019-04-21T08:48:18.299Z,45.25
2019-04-21T08:51:08.282Z,49.25
2019-04-21T08:53:35.711Z,47.50
2019-04-21T08:56:10.532Z,45.60
2019-04-21T08:58:41.553Z,48.75
2019-04-21T09:01:23.902Z,44.60
2019-04-21T09:03:56.743Z,46.50
2019-04-21T09:09:05.287Z,43.50
2019-04-21T09:11:36.257Z,44.40
2019-04-21T09:14:13.857Z,44.75
2019-04-21T09:16:47.603Z,46.75
2019-04-21T09:19:38.536Z,43.75
2019-04-21T09:22:02.234Z,42.00
2019-04-21T09:24:33.345Z,40.00
2019-04-21T09:27:10.051Z,40.00
2019-04-21T09:29:36.656Z,40.00
2019-04-21T09:32:09.596Z,41.25
2019-04-21T09:34:43.744Z,42.50
2019-04-21T09:37:28.843Z,43.25
2019-04-21T09:39:55.154Z,41.75
2019-04-21T09:42:37.295Z,43.25
2019-04-21T09:45:06.174Z,45.00
2019-04-21T09:47:46.498Z,42.40
2019-04-21T09:50:15.135Z,43.00
2019-04-21T09:52:55.480Z,43.00
2019-04-21T09:55:31.499Z,42.75
2019-04-21T09:58:09.941Z,40.75
2019-04-21T10:00:47.653Z,39.20
2019-04-21T10:03:13.917Z,36.25
2019-04-21T10:05:47.489Z,37.50
2019-04-21T10:08:22.820Z,36.20
2019-04-21T10:10:56.967Z,39.00
2019-04-21T10:13:31.838Z,37.75
2019-04-21T10:16:05.799Z,38.50
2019-04-21T10:18:40.311Z,36.00
2019-04-21T10:21:15.456Z,32.25
2019-04-21T10:23:50.097Z,34.25
2019-04-21T10:26:24.360Z,32.50
2019-04-21T10:29:05.706Z,34.25
2019-04-21T10:31:34.650Z,35.00
2019-04-21T10:34:09.336Z,34.20
2019-04-21T10:36:43.193Z,32.25
2019-04-21T10:39:17.805Z,31.50
2019-04-21T10:41:57.353Z,35.00
2019-04-21T10:44:31.498Z,32.75
2019-04-21T10:47:06.788Z,34.00
2019-04-21T10:49:40.685Z,34.00
2019-04-21T10:52:15.240Z,29.75
2019-04-21T10:55:15.072Z,29.25
2019-04-21T10:57:24.496Z,28.50
2019-04-21T10:59:59.838Z,29.25
2019-04-21T11:02:34.791Z,32.60
2019-04-21T11:05:09.097Z,30.25
2019-04-21T11:07:57.601Z,22.25
2019-04-21T11:10:18.406Z,25.75
2019-04-21T11:12:52.690Z,28.00
2019-04-21T11:15:27.511Z,24.00
2019-04-21T11:18:01.795Z,25.50
2019-04-21T11:20:35.655Z,26.25
2019-04-21T11:23:10.191Z,27.00
2019-04-21T11:25:44.057Z,24.50
2019-04-21T11:28:18.644Z,24.17
2019-04-21T11:30:53.092Z,23.75
2019-04-21T11:33:27.190Z,22.00
2019-04-21T11:36:01.457Z,24.25
2019-04-21T11:38:51.328Z,25.25
2019-04-21T11:41:11.912Z,23.00
2019-04-21T11:43:45.771Z,27.40
2019-04-21T11:46:20.504Z,26.25
2019-04-21T11:48:54.701Z,23.25
2019-04-21T11:51:28.967Z,23.75
2019-04-21T11:54:02.874Z,25.60
2019-04-21T11:56:37.002Z,23.25
2019-04-21T11:59:11.978Z,25.80
2019-04-21T12:01:45.988Z,22.60
2019-04-21T12:04:19.702Z,24.00
2019-04-21T12:06:55.972Z,23.80
2019-04-21T12:09:30.171Z,25.25
2019-04-21T12:12:05.261Z,26.20
2019-04-21T12:14:39.698Z,25.00
2019-04-21T12:17:14.244Z,23.50
2019-04-21T12:19:48.563Z,23.00
2019-04-21T12:22:28.215Z,21.75
2019-04-21T12:24:57.817Z,25.40
2019-04-21T12:27:32.006Z,27.00
2019-04-21T12:30:06.846Z,26.00
2019-04-21T12:32:40.589Z,25.00
2019-04-21T12:35:15.652Z,25.00
2019-04-21T12:37:51.062Z,28.00
2019-04-21T12:40:26.092Z,25.00
2019-04-21T12:43:00.953Z,27.25
2019-04-21T12:45:35.947Z,19.80
2019-04-21T12:48:10.456Z,18.75
2019-04-21T12:50:45.717Z,21.75
2019-04-21T12:53:19.545Z,23.00
2019-04-21T12:55:53.818Z,22.75
2019-04-21T12:58:28.983Z,23.75
2019-04-21T13:01:03.008Z,23.20
2019-04-21T13:03:37.604Z,23.50
2019-04-21T13:06:11.770Z,21.75
2019-04-21T13:08:53.611Z,23.75
2019-04-21T13:11:21.432Z,23.75
2019-04-21T13:13:55.742Z,24.75
2019-04-21T13:16:29.601Z,24.50
2019-04-21T13:19:03.346Z,23.80
2019-04-21T13:21:38.130Z,21.25
2019-04-21T13:24:12.033Z,25.25
2019-04-21T13:26:52.380Z,22.25
2019-04-21T13:29:21.184Z,22.60
2019-04-21T13:31:56.175Z,22.50
2019-04-21T13:34:31.669Z,20.00
2019-04-21T13:37:05.782Z,22.75
2019-04-21T13:40:01.931Z,19.25
2019-04-21T13:42:24.075Z,20.25
2019-04-21T13:44:50.969Z,22.25
2019-04-21T13:47:25.047Z,22.00
2019-04-21T13:50:01.048Z,23.00
2019-04-21T13:52:34.545Z,23.25
2019-04-21T13:55:09.508Z,34.80
2019-04-21T13:57:44.369Z,98.75
2019-04-21T14:00:19.434Z,32.20
2019-04-21T14:02:54.561Z,26.60
2019-04-21T14:05:28.673Z,20.60
2019-04-21T14:08:03.150Z,18.80
2019-04-21T14:10:37.675Z,19.25
2019-04-21T14:13:12.148Z,19.60
2019-04-21T14:15:48.336Z,17.00
2019-04-21T14:18:22.553Z,50.60
2019-04-21T14:20:57.445Z,69.00
2019-04-21T14:23:38.072Z,24.75
2019-04-21T14:26:06.632Z,47.20
2019-04-21T14:28:41.051Z,36.00
2019-04-21T14:31:14.875Z,35.25
2019-04-21T14:33:49.941Z,25.20
2019-04-21T14:36:23.955Z,38.50
2019-04-21T14:38:58.731Z,32.50
2019-04-21T14:41:32.682Z,58.40
2019-04-21T14:44:06.925Z,44.60
2019-04-21T14:46:40.723Z,81.25
2019-04-21T14:49:15.199Z,25.50
2019-04-21T14:51:49.565Z,48.00
2019-04-21T14:54:24.701Z,26.25
2019-04-21T14:56:58.633Z,30.00
2019-04-21T14:59:33.273Z,23.50
2019-04-21T15:02:07.756Z,32.25
2019-04-21T15:04:41.793Z,21.75
2019-04-21T15:07:15.568Z,30.50
2019-04-21T15:10:01.163Z,21.50
2019-04-21T15:12:25.771Z,43.00
2019-04-21T15:15:00.164Z,37.00
2019-04-21T15:17:34.031Z,28.75
2019-04-21T15:20:11.165Z,18.60
2019-04-21T15:22:44.270Z,22.75
2019-04-21T15:25:18.410Z,17.75
2019-04-21T15:27:52.835Z,20.20
2019-04-21T15:30:26.879Z,21.25
2019-04-21T15:33:02.222Z,18.20
2019-04-21T15:35:37.329Z,17.75
2019-04-21T15:38:11.870Z,19.75
2019-04-21T15:40:52.155Z,19.00
2019-04-21T15:43:22.356Z,19.50
2019-04-21T15:45:57.101Z,16.75
2019-04-21T15:48:31.010Z,19.00
2019-04-21T15:51:05.659Z,17.50
2019-04-21T15:53:41.632Z,14.50
2019-04-21T15:56:17.325Z,15.25
2019-04-21T15:58:52.659Z,19.00
2019-04-21T16:01:26.652Z,17.25
2019-04-21T16:04:02.142Z,18.00
2019-04-21T16:06:37.229Z,18.40
2019-04-21T16:09:15.058Z,17.60
2019-04-21T16:11:46.652Z,17.00
2019-04-21T16:14:20.688Z,22.50
2019-04-21T16:16:54.635Z,20.00
2019-04-21T16:19:36.245Z,18.75
2019-04-21T16:22:10.818Z,19.00
2019-04-21T16:24:46.272Z,18.25
2019-04-21T16:27:21.305Z,19.00
2019-04-21T16:29:55.265Z,23.50
2019-04-21T16:32:30.155Z,20.00
2019-04-21T16:35:10.445Z,18.40
2019-04-21T16:37:41.607Z,19.00
2019-04-21T16:40:15.484Z,19.00
2019-04-21T16:42:50.089Z,21.75
2019-04-21T16:45:25.114Z,19.50
2019-04-21T16:47:59.147Z,19.80
2019-04-21T16:50:33.972Z,18.75
2019-04-21T16:53:08.230Z,22.00
2019-04-21T16:55:42.207Z,30.20
2019-04-21T16:58:20.640Z,22.25
2019-04-21T17:01:00.698Z,20.20
2019-04-21T17:03:28.307Z,21.00
2019-04-21T17:06:04.695Z,18.00
2019-04-21T17:08:38.747Z,17.00
2019-04-21T17:11:19.541Z,18.00
2019-04-21T17:13:50.006Z,21.00
2019-04-21T17:19:09.109Z,16.50
2019-04-21T17:21:34.746Z,16.50
2019-04-21T17:24:08.522Z,17.25
2019-04-21T17:26:44.734Z,13.80
2019-04-21T17:29:20.753Z,15.50
2019-04-21T17:31:55.305Z,15.00
2019-04-21T17:34:31.640Z,13.40
2019-04-21T17:37:05.526Z,14.00
2019-04-21T17:39:40.618Z,18.50
2019-04-21T17:42:26.419Z,12.25
2019-04-21T17:44:51.069Z,16.00
2019-04-21T17:47:34.198Z,18.25
2019-04-21T17:50:03.130Z,22.00
2019-04-21T17:52:42.860Z,20.00
2019-04-21T17:55:22.987Z,19.50
2019-04-21T17:58:09.290Z,17.40
2019-04-21T18:01:09.244Z,13.75
2019-04-21T18:03:35.308Z,12.25
2019-04-21T18:05:55.915Z,15.75
2019-04-21T18:08:38.705Z,14.25
2019-04-21T18:11:03.442Z,17.75
2019-04-21T18:13:26.925Z,16.75
2019-04-21T18:16:09.642Z,24.25
2019-04-21T18:18:36.832Z,24.00
2019-04-21T18:21:10.741Z,24.00
2019-04-21T18:23:52.846Z,28.60
2019-04-21T18:26:30.304Z,29.75
2019-04-21T18:28:58.571Z,28.75
2019-04-21T18:31:33.773Z,27.25
2019-04-21T18:34:11.085Z,29.00
2019-04-21T18:36:46.443Z,27.60
2019-04-21T18:39:34.187Z,28.00
2019-04-21T18:42:10.909Z,25.60
2019-04-21T18:45:11.060Z,23.00
2019-04-21T18:47:24.204Z,17.60
2019-04-21T18:49:46.010Z,22.25
2019-04-21T18:52:32.250Z,25.25
2019-04-21T18:55:09.548Z,24.00
2019-04-21T18:57:39.250Z,28.25
2019-04-21T19:00:15.346Z,27.20
2019-04-21T19:02:47.718Z,29.00
2019-04-21T19:05:21.216Z,30.25
2019-04-21T19:08:11.492Z,27.75
2019-04-21T19:10:50.727Z,33.00
2019-04-21T19:13:44.385Z,29.20
2019-04-21T19:16:22.830Z,35.50
2019-04-21T19:18:43.663Z,34.50
2019-04-21T19:21:06.169Z,31.50
2019-04-21T19:23:53.557Z,25.75
2019-04-21T19:29:03.512Z,26.25
2019-04-21T19:31:32.233Z,24.00
2019-04-21T19:33:59.851Z,23.50
2019-04-21T19:36:23.655Z,26.50
2019-04-21T19:39:06.840Z,29.20
2019-04-21T19:41:48.980Z,26.25
2019-04-21T19:44:32.340Z,24.75
2019-04-21T19:47:03.662Z,29.50
2019-04-21T19:49:45.250Z,28.25
2019-04-21T19:52:05.107Z,34.75
2019-04-21T19:54:36.314Z,29.40
2019-04-21T19:57:07.270Z,28.00
2019-04-21T19:59:47.678Z,25.75
2019-04-21T20:02:16.612Z,26.75
2019-04-21T20:04:59.000Z,33.50
2019-04-21T20:07:44.461Z,33.75
2019-04-21T20:10:23.967Z,36.50
2019-04-21T20:12:55.587Z,35.00
2019-04-21T20:15:37.395Z,37.00
2019-04-21T20:18:01.985Z,37.50
2019-04-21T20:20:24.864Z,48.00
2019-04-21T20:22:59.399Z,47.25
2019-04-21T20:25:41.808Z,49.25
2019-04-21T20:28:16.079Z,46.75
2019-04-21T20:31:02.434Z,44.20
2019-04-21T20:36:16.855Z,44.75
2019-04-21T20:38:44.472Z,38.00
2019-04-21T20:41:22.447Z,40.00
2019-04-21T20:44:00.500Z,36.50
2019-04-21T20:46:36.694Z,41.00
2019-04-21T20:49:02.764Z,44.40
2019-04-21T20:51:41.978Z,41.25
2019-04-21T20:54:23.117Z,45.50
2019-04-21T20:56:57.830Z,45.25
2019-04-21T20:59:29.302Z,46.25
2019-04-21T21:02:05.685Z,47.50
2019-04-21T21:04:32.661Z,53.00
2019-04-21T21:07:34.610Z,47.00
2019-04-21T21:10:00.467Z,47.00
2019-04-21T21:12:43.093Z,50.75
2019-04-21T21:15:02.582Z,51.00
2019-04-21T21:17:53.665Z,49.25
2019-04-21T21:20:24.830Z,52.25
2019-04-21T21:22:56.176Z,50.50
2019-04-21T21:25:40.243Z,53.60
2019-04-21T21:28:06.748Z,55.00
2019-04-21T21:30:37.521Z,54.60
2019-04-21T21:33:27.553Z,53.00
2019-04-21T21:35:56.810Z,53.00
2019-04-21T21:38:31.436Z,53.75
2019-04-21T21:40:59.598Z,57.00
2019-04-21T21:43:27.506Z,54.00
2019-04-21T21:46:11.170Z,58.25
2019-04-21T21:48:51.385Z,57.00
2019-04-21T21:51:22.774Z,60.60
2019-04-21T21:53:48.822Z,61.00
2019-04-21T21:56:24.618Z,61.25
2019-04-21T21:59:01.309Z,60.25
2019-04-21T22:01:38.845Z,69.00
2019-04-21T22:04:17.020Z,80.00
2019-04-21T22:06:50.656Z,82.50
2019-04-21T22:09:20.114Z,75.75
2019-04-21T22:11:57.915Z,72.50
2019-04-21T22:14:36.935Z,65.75
2019-04-21T22:17:24.689Z,70.00
2019-04-21T22:20:05.259Z,65.50
2019-04-21T22:22:34.155Z,70.50
2019-04-21T22:25:02.674Z,68.50
2019-04-21T22:27:27.380Z,66.00
2019-04-21T22:30:03.934Z,64.00
2019-04-21T22:32:38.245Z,65.00
2019-04-21T22:35:23.534Z,66.00
2019-04-21T22:38:02.034Z,63.20
2019-04-21T22:40:35.847Z,66.75
2019-04-21T22:43:11.927Z,62.75
2019-04-21T22:45:35.580Z,64.25
2019-04-21T22:48:14.333Z,64.40
2019-04-21T22:50:44.866Z,64.75
2019-04-21T22:53:19.767Z,63.50
2019-04-21T22:56:00.093Z,64.50
2019-04-21T22:58:33.967Z,61.25
2019-04-21T23:01:06.015Z,64.75
2019-04-21T23:03:48.997Z,60.75
2019-04-21T23:06:21.619Z,63.20
2019-04-21T23:08:51.274Z,60.75
2019-04-21T23:11:28.059Z,60.50
2019-04-21T23:14:05.035Z,61.50
2019-04-21T23:16:39.670Z,62.25
2019-04-21T23:19:30.816Z,62.75
2019-04-21T23:22:04.141Z,62.00
2019-04-21T23:24:45.685Z,61.25
2019-04-21T23:27:11.774Z,60.60
2019-04-21T23:30:03.322Z,62.00
2019-04-21T23:32:23.581Z,62.25
2019-04-21T23:34:45.590Z,59.75
2019-04-21T23:37:22.152Z,61.50
2019-04-21T23:40:01.017Z,59.25
2019-04-21T23:42:36.189Z,60.75
2019-04-21T23:45:08.723Z,57.25
2019-04-21T23:47:57.873Z,58.40
2019-04-21T23:50:30.696Z,58.25
2019-04-21T23:52:55.434Z,58.60
2019-04-21T23:55:29.454Z,61.75
2019-04-21T23:58:09.437Z,59.25
